NDF6026 EDDH-LPMA
Flight info
| Callsign | NDF6026 |
|---|---|
| Flight time | N/A |
| Altitude | 38000 |
| Route | WSN5G/33 WSN N125 ONTAZ DCT NIK/N0474F390 DCT KOVIN DCT NIDUV DCT KIHVI UN872 ERIGA UN741 AZFIC DCT LOTEE DCT PINEK DCT LIDRO LIDRO1P |
| Aircraft | A333/H-SDE3GHIJ2J3J5M1RVWXY/LB2D1 |
Departure
| Time | 2026-05-05 14:07 |
|---|---|
| Airport | Hamburg Helmut Schmidt Airport (EDDH) |
Arrival
| Time | N/A |
|---|---|
| Airport | Cristiano Ronaldo International Airport (LPMA) |
| Time | Latitude | Longitude | Altitude | Speed | Heading |
|---|---|---|---|---|---|
| 2026-05-05 13:24 | 53.62946 | 10.00278 | 66 ft | 0 kts | 122° |
| 2026-05-05 13:58 | 53.62953 | 10.00258 | 66 ft | 2 kts | 122° |
| 2026-05-05 13:58 | 53.62961 | 10.00237 | 66 ft | 2 kts | 122° |
| 2026-05-05 13:58 | 53.62969 | 10.00216 | 66 ft | 2 kts | 122° |
| 2026-05-05 13:58 | 53.62977 | 10.00194 | 66 ft | 2 kts | 122° |
| 2026-05-05 13:59 | 53.62998 | 10.00160 | 66 ft | 2 kts | 172° |
| 2026-05-05 13:59 | 53.63013 | 10.00161 | 66 ft | 2 kts | 201° |
| 2026-05-05 14:00 | 53.63022 | 10.00168 | 66 ft | 0 kts | 212° |
| 2026-05-05 14:01 | 53.63021 | 10.00168 | 66 ft | 0 kts | 212° |
| 2026-05-05 14:02 | 53.63018 | 10.00165 | 66 ft | 3 kts | 212° |
| 2026-05-05 14:02 | 53.62972 | 10.00115 | 66 ft | 11 kts | 212° |
| 2026-05-05 14:02 | 53.62913 | 10.00059 | 66 ft | 8 kts | 202° |
| 2026-05-05 14:02 | 53.62863 | 10.00012 | 66 ft | 8 kts | 232° |
| 2026-05-05 14:03 | 53.62853 | 9.99984 | 66 ft | 0 kts | 239° |
| 2026-05-05 14:04 | 53.62841 | 9.99951 | 66 ft | 8 kts | 240° |
| 2026-05-05 14:04 | 53.62811 | 9.99857 | 66 ft | 4 kts | 243° |
| 2026-05-05 14:04 | 53.62812 | 9.99801 | 66 ft | 6 kts | 314° |
| 2026-05-05 14:04 | 53.62825 | 9.99785 | 66 ft | 0 kts | 328° |
| 2026-05-05 14:06 | 53.62830 | 9.99781 | 66 ft | 5 kts | 328° |
| 2026-05-05 14:06 | 53.63049 | 9.99586 | 66 ft | 70 kts | 333° |
| 2026-05-05 14:07 | 53.63688 | 9.99035 | 67 ft | 133 kts | 333° |
| 2026-05-05 14:07 | 53.64654 | 9.98202 | 183 ft | 171 kts | 335° |
| 2026-05-05 14:07 | 53.65684 | 9.97364 | 930 ft | 164 kts | 339° |
| 2026-05-05 14:07 | 53.66724 | 9.96537 | 1571 ft | 170 kts | 336° |
| 2026-05-05 14:08 | 53.67724 | 9.95632 | 2403 ft | 162 kts | 337° |
| 2026-05-05 14:08 | 53.68718 | 9.94769 | 3057 ft | 163 kts | 336° |
| 2026-05-05 14:08 | 53.69709 | 9.93910 | 3669 ft | 164 kts | 336° |
| 2026-05-05 14:08 | 53.70732 | 9.93025 | 4287 ft | 166 kts | 335° |
| 2026-05-05 14:09 | 53.71552 | 9.91706 | 4796 ft | 173 kts | 295° |
| 2026-05-05 14:09 | 53.71627 | 9.89750 | 5344 ft | 171 kts | 252° |
| 2026-05-05 14:09 | 53.71199 | 9.87870 | 5691 ft | 175 kts | 252° |
| 2026-05-05 14:09 | 53.70788 | 9.85860 | 5924 ft | 187 kts | 253° |
| 2026-05-05 14:10 | 53.70355 | 9.83706 | 6086 ft | 206 kts | 253° |
| 2026-05-05 14:10 | 53.69877 | 9.81313 | 6415 ft | 223 kts | 253° |
| 2026-05-05 14:10 | 53.69364 | 9.78730 | 6826 ft | 239 kts | 253° |
| 2026-05-05 14:10 | 53.68829 | 9.76028 | 7216 ft | 255 kts | 253° |
| 2026-05-05 14:11 | 53.68255 | 9.73117 | 7662 ft | 269 kts | 253° |